Time,TemperatureF,DewpointF,PressureIn,WindDirection,WindDirectionDegrees,WindSpeedMPH,WindSpeedGustMPH,Humidity,HourlyPrecipIn,Conditions,Clouds,dailyrainin,SoftwareType,DateUTC
2013-03-16 13:02:00,48.0,47.0,25.84,SE,141,2.0,9.0,97,0.00,,,0.00,,2013-03-16 20:02:00,
2013-03-16 13:11:00,48.0,47.0,25.84,SE,141,2.0,9.0,97,0.00,,,0.00,,2013-03-16 20:11:00,
2013-03-16 13:21:00,48.0,47.0,25.86,South,173,3.0,9.0,97,0.01,,,0.01,,2013-03-16 20:21:00,
2013-03-16 13:32:00,47.0,46.0,25.87,SE,134,1.0,10.0,97,0.03,,,0.03,,2013-03-16 20:32:00,
2013-03-16 13:42:00,47.0,46.0,25.87,SE,134,1.0,10.0,97,0.03,,,0.03,,2013-03-16 20:42:00,
2013-03-16 13:51:00,47.0,46.0,25.86,SE,135,3.0,9.0,97,0.03,,,0.03,,2013-03-16 20:51:00,
2013-03-16 14:02:00,48.0,47.0,25.84,SE,135,5.0,16.0,97,0.04,,,0.04,,2013-03-16 21:02:00,
2013-03-16 14:11:00,48.0,47.0,25.84,SE,135,5.0,16.0,97,0.04,,,0.04,,2013-03-16 21:11:00,
2013-03-16 14:22:00,48.0,47.0,25.84,SE,130,4.0,10.0,98,0.03,,,0.04,,2013-03-16 21:22:00,
2013-03-16 14:32:00,48.0,47.0,25.86,SSE,168,2.0,13.0,96,0.01,,,0.04,,2013-03-16 21:32:00,
2013-03-16 14:42:00,48.0,47.0,25.86,SSE,168,2.0,13.0,96,0.01,,,0.04,,2013-03-16 21:42:00,
2013-03-16 14:52:00,48.0,47.0,25.84,South,178,5.0,14.0,96,0.01,,,0.04,,2013-03-16 21:52:00,
2013-03-16 15:03:00,48.0,47.0,25.85,SSE,150,3.0,13.0,96,0.00,,,0.04,,2013-03-16 22:03:00,
2013-03-16 15:12:00,48.0,47.0,25.85,SSE,150,3.0,13.0,96,0.00,,,0.04,,2013-03-16 22:12:00,
2013-03-16 15:22:00,48.0,47.0,25.85,SSE,150,3.0,13.0,96,0.00,,,0.04,,2013-03-16 22:22:00,
2013-03-16 15:32:00,47.0,46.0,25.87,South,181,4.0,15.0,98,0.05,,,0.09,,2013-03-16 22:32:00,
2013-03-16 15:42:00,47.0,46.0,25.87,South,181,4.0,15.0,98,0.05,,,0.09,,2013-03-16 22:42:00,
2013-03-16 15:52:00,47.0,46.0,25.87,South,169,5.0,16.0,98,0.06,,,0.10,,2013-03-16 22:52:00,
2013-03-16 16:02:00,48.0,47.0,25.84,SSW,199,5.0,13.0,98,0.15,,,0.19,,2013-03-16 23:02:00,
2013-03-16 16:12:00,48.0,47.0,25.84,SSW,199,5.0,13.0,98,0.15,,,0.19,,2013-03-16 23:12:00,
2013-03-16 16:22:00,48.0,47.0,25.87,SW,226,9.0,24.0,98,0.20,,,0.25,,2013-03-16 23:22:00,
2013-03-16 16:32:00,48.0,47.0,25.87,SW,226,9.0,24.0,98,0.20,,,0.25,,2013-03-16 23:32:00,
2013-03-16 16:42:00,48.0,47.0,25.87,SW,226,9.0,24.0,98,0.20,,,0.25,,2013-03-16 23:42:00,
2013-03-16 16:52:00,48.0,47.0,25.87,SW,226,9.0,24.0,98,0.20,,,0.25,,2013-03-16 23:52:00,
2013-03-16 17:01:00,48.0,48.0,25.86,West,278,3.0,15.0,99,0.15,,,0.35,,2013-03-17 00:01:00,
2013-03-16 17:12:00,48.0,48.0,25.86,West,278,3.0,15.0,99,0.15,,,0.35,,2013-03-17 00:12:00,
2013-03-16 17:22:00,48.0,48.0,25.83,SW,231,7.0,19.0,99,0.12,,,0.37,,2013-03-17 00:22:00,
2013-03-16 17:32:00,48.0,48.0,25.85,SW,227,7.0,19.0,99,0.09,,,0.37,,2013-03-17 00:32:00,
2013-03-16 17:42:00,48.0,48.0,25.85,SW,227,7.0,19.0,99,0.09,,,0.37,,2013-03-17 00:42:00,
2013-03-16 17:52:00,48.0,48.0,25.85,SW,227,7.0,19.0,99,0.09,,,0.37,,2013-03-17 00:52:00,